CFG933 EDDH-EDDF
Flight info
| Callsign | CFG933 |
|---|---|
| Flight time | N/A |
| Altitude | 30000 |
| Route | AMLUH2G AMLUH M852 DENIX DCT RIMET/N0405F310 T157 KOKEB/N0351F230 T157 KERAX KERAX5D |
| Aircraft | A20N/M-SDE2E3FGHIRWXY/LB1 |
Departure
| Time | 2026-04-22 14:23 |
|---|---|
| Airport | Hamburg Helmut Schmidt Airport (EDDH) |
Arrival
| Time | N/A |
|---|---|
| Airport | Frankfurt Main Airport (EDDF) |
| Time | Latitude | Longitude | Altitude | Speed | Heading |
|---|---|---|---|---|---|
| 2026-04-22 13:50 | 53.63294 | 10.00359 | 50 ft | 0 kts | 86° |
| 2026-04-22 13:51 | 53.63294 | 10.00358 | 50 ft | 0 kts | 87° |
| 2026-04-22 14:14 | 53.63294 | 10.00346 | 50 ft | 2 kts | 87° |
| 2026-04-22 14:14 | 53.63293 | 10.00313 | 50 ft | 3 kts | 87° |
| 2026-04-22 14:14 | 53.63292 | 10.00279 | 50 ft | 3 kts | 87° |
| 2026-04-22 14:14 | 53.63291 | 10.00245 | 50 ft | 3 kts | 87° |
| 2026-04-22 14:15 | 53.63289 | 10.00212 | 50 ft | 3 kts | 90° |
| 2026-04-22 14:15 | 53.63293 | 10.00182 | 49 ft | 3 kts | 139° |
| 2026-04-22 14:15 | 53.63307 | 10.00170 | 44 ft | 2 kts | 175° |
| 2026-04-22 14:15 | 53.63318 | 10.00169 | 48 ft | 1 kts | 176° |
| 2026-04-22 14:16 | 53.63320 | 10.00169 | 48 ft | 0 kts | 176° |
| 2026-04-22 14:19 | 53.63308 | 10.00170 | 44 ft | 4 kts | 176° |
| 2026-04-22 14:19 | 53.63268 | 10.00174 | 50 ft | 8 kts | 176° |
| 2026-04-22 14:19 | 53.63202 | 10.00182 | 50 ft | 11 kts | 176° |
| 2026-04-22 14:20 | 53.63059 | 10.00173 | 48 ft | 11 kts | 211° |
| 2026-04-22 14:20 | 53.62987 | 10.00095 | 50 ft | 14 kts | 213° |
| 2026-04-22 14:20 | 53.62926 | 10.00017 | 50 ft | 9 kts | 235° |
| 2026-04-22 14:21 | 53.62895 | 9.99910 | 50 ft | 0 kts | 242° |
| 2026-04-22 14:22 | 53.62875 | 9.99843 | 47 ft | 7 kts | 243° |
| 2026-04-22 14:22 | 53.62870 | 9.99749 | 49 ft | 9 kts | 304° |
| 2026-04-22 14:22 | 53.62916 | 9.99701 | 49 ft | 2 kts | 333° |
| 2026-04-22 14:23 | 53.63137 | 9.99510 | 49 ft | 78 kts | 332° |
| 2026-04-22 14:23 | 53.63844 | 9.98900 | 49 ft | 146 kts | 332° |
| 2026-04-22 14:23 | 53.64826 | 9.98075 | 569 ft | 162 kts | 330° |
| 2026-04-22 14:23 | 53.65888 | 9.97191 | 1340 ft | 178 kts | 332° |
| 2026-04-22 14:24 | 53.67053 | 9.96247 | 2288 ft | 195 kts | 333° |
| 2026-04-22 14:24 | 53.68343 | 9.95324 | 3231 ft | 203 kts | 338° |
| 2026-04-22 14:24 | 53.69734 | 9.94769 | 4108 ft | 208 kts | 354° |
| 2026-04-22 14:24 | 53.71171 | 9.94726 | 5164 ft | 206 kts | 359° |
| 2026-04-22 14:25 | 53.72621 | 9.94890 | 6041 ft | 212 kts | 14° |
| 2026-04-22 14:25 | 53.73942 | 9.96031 | 6904 ft | 220 kts | 40° |
| 2026-04-22 14:25 | 53.74801 | 9.98169 | 7754 ft | 226 kts | 69° |
| 2026-04-22 14:25 | 53.74927 | 10.00839 | 8613 ft | 235 kts | 98° |
| 2026-04-22 14:26 | 53.74317 | 10.03427 | 9464 ft | 243 kts | 115° |
| 2026-04-22 14:26 | 53.73950 | 10.04521 | 9846 ft | 247 kts | 117° |
| 2026-04-22 14:26 | 53.73049 | 10.07123 | 10386 ft | 267 kts | 117° |
| 2026-04-22 14:26 | 53.72081 | 10.09963 | 10806 ft | 290 kts | 117° |
| 2026-04-22 14:27 | 53.71047 | 10.13035 | 11200 ft | 313 kts | 117° |
| 2026-04-22 14:27 | 53.69932 | 10.16349 | 11541 ft | 335 kts | 118° |
| 2026-04-22 14:27 | 53.68412 | 10.19429 | 12172 ft | 349 kts | 138° |
| 2026-04-22 14:27 | 53.66292 | 10.21502 | 12997 ft | 358 kts | 159° |
| 2026-04-22 14:28 | 53.63886 | 10.22679 | 13814 ft | 363 kts | 163° |
| 2026-04-22 14:28 | 53.61431 | 10.23792 | 14590 ft | 367 kts | 163° |
| 2026-04-22 14:28 | 53.58987 | 10.24891 | 15334 ft | 370 kts | 163° |
| 2026-04-22 14:28 | 53.56447 | 10.26039 | 16074 ft | 375 kts | 163° |
| 2026-04-22 14:29 | 53.53951 | 10.27175 | 16749 ft | 380 kts | 163° |
| 2026-04-22 14:29 | 53.51383 | 10.28349 | 17456 ft | 384 kts | 163° |
| 2026-04-22 14:29 | 53.48794 | 10.29532 | 18164 ft | 388 kts | 163° |
| 2026-04-22 14:29 | 53.46175 | 10.30728 | 18822 ft | 392 kts | 163° |
| 2026-04-22 14:30 | 53.43533 | 10.31933 | 19465 ft | 395 kts | 163° |
| 2026-04-22 14:30 | 53.40875 | 10.33141 | 20115 ft | 397 kts | 163° |
| 2026-04-22 14:30 | 53.38212 | 10.34342 | 20868 ft | 396 kts | 163° |
| 2026-04-22 14:30 | 53.35538 | 10.35543 | 21495 ft | 399 kts | 163° |
| 2026-04-22 14:31 | 53.32846 | 10.36752 | 22090 ft | 402 kts | 163° |
| 2026-04-22 14:31 | 53.30132 | 10.37970 | 22700 ft | 405 kts | 162° |
| 2026-04-22 14:31 | 53.28291 | 10.38796 | 23100 ft | 408 kts | 162° |
| 2026-04-22 14:31 | 53.25526 | 10.40034 | 23667 ft | 412 kts | 162° |
| 2026-04-22 14:32 | 53.22790 | 10.41257 | 24200 ft | 414 kts | 162° |
| 2026-04-22 14:32 | 53.20000 | 10.42503 | 24704 ft | 417 kts | 162° |
| 2026-04-22 14:32 | 53.17187 | 10.43757 | 25176 ft | 419 kts | 162° |
| 2026-04-22 14:32 | 53.14327 | 10.44816 | 25641 ft | 424 kts | 169° |
| 2026-04-22 14:33 | 53.11370 | 10.45285 | 26100 ft | 429 kts | 176° |
| 2026-04-22 14:33 | 53.08369 | 10.45124 | 26542 ft | 434 kts | 183° |
| 2026-04-22 14:33 | 53.05349 | 10.44681 | 26984 ft | 437 kts | 183° |
| 2026-04-22 14:33 | 53.02307 | 10.44242 | 27411 ft | 440 kts | 182° |
| 2026-04-22 14:34 | 52.99256 | 10.43813 | 27830 ft | 442 kts | 182° |
| 2026-04-22 14:34 | 52.96175 | 10.43387 | 28233 ft | 445 kts | 182° |
| 2026-04-22 14:34 | 52.93084 | 10.42963 | 28625 ft | 447 kts | 182° |
| 2026-04-22 14:34 | 52.89969 | 10.42539 | 29004 ft | 450 kts | 182° |
| 2026-04-22 14:35 | 52.86840 | 10.42113 | 29378 ft | 452 kts | 182° |
| 2026-04-22 14:35 | 52.83699 | 10.41687 | 29734 ft | 455 kts | 182° |
| 2026-04-22 14:35 | 52.80539 | 10.41258 | 30081 ft | 457 kts | 182° |
| 2026-04-22 14:35 | 52.77352 | 10.40827 | 30288 ft | 461 kts | 182° |
| 2026-04-22 14:36 | 52.74149 | 10.40394 | 30341 ft | 461 kts | 182° |
| 2026-04-22 14:36 | 52.67762 | 10.39531 | 30340 ft | 461 kts | 182° |
| 2026-04-22 14:37 | 52.61374 | 10.38671 | 30342 ft | 461 kts | 182° |
| 2026-04-22 14:37 | 52.55021 | 10.37818 | 30354 ft | 461 kts | 182° |
| 2026-04-22 14:38 | 52.48595 | 10.36960 | 30345 ft | 463 kts | 182° |
| 2026-04-22 14:38 | 52.42171 | 10.36101 | 30346 ft | 463 kts | 182° |
| 2026-04-22 14:39 | 52.35748 | 10.35247 | 30346 ft | 463 kts | 182° |
| 2026-04-22 14:39 | 52.29320 | 10.34393 | 30348 ft | 464 kts | 182° |
| 2026-04-22 14:40 | 52.19658 | 10.33115 | 30347 ft | 464 kts | 182° |
| 2026-04-22 14:40 | 52.13213 | 10.32265 | 30346 ft | 464 kts | 182° |
| 2026-04-22 14:41 | 52.06774 | 10.31420 | 30347 ft | 464 kts | 182° |
| 2026-04-22 14:41 | 52.00309 | 10.30574 | 30346 ft | 466 kts | 182° |
| 2026-04-22 14:42 | 51.93844 | 10.29728 | 30349 ft | 466 kts | 182° |
| 2026-04-22 14:42 | 51.87438 | 10.28891 | 30356 ft | 458 kts | 181° |
| 2026-04-22 14:43 | 51.81052 | 10.28063 | 30347 ft | 462 kts | 181° |
| 2026-04-22 14:43 | 51.74635 | 10.27234 | 30344 ft | 463 kts | 181° |
| 2026-04-22 14:44 | 51.68213 | 10.26403 | 30351 ft | 462 kts | 181° |
| 2026-04-22 14:44 | 51.62307 | 10.25641 | 30347 ft | 463 kts | 181° |
| 2026-04-22 14:45 | 51.58210 | 10.25114 | 30356 ft | 463 kts | 182° |
| 2026-04-22 14:45 | 51.51772 | 10.24289 | 30341 ft | 464 kts | 182° |
| 2026-04-22 14:46 | 51.45343 | 10.23466 | 30338 ft | 464 kts | 182° |
| 2026-04-22 14:46 | 51.38955 | 10.22652 | 30351 ft | 464 kts | 182° |
| 2026-04-22 14:47 | 51.32506 | 10.21913 | 30337 ft | 465 kts | 178° |
| 2026-04-22 14:47 | 51.26045 | 10.21789 | 30343 ft | 464 kts | 178° |
| 2026-04-22 14:48 | 51.19576 | 10.21661 | 30335 ft | 465 kts | 178° |
| 2026-04-22 14:48 | 51.13111 | 10.21530 | 30333 ft | 464 kts | 178° |
| 2026-04-22 14:49 | 51.06634 | 10.21415 | 30338 ft | 466 kts | 178° |
| 2026-04-22 14:49 | 51.00154 | 10.21301 | 30337 ft | 466 kts | 178° |
| 2026-04-22 14:50 | 50.93674 | 10.21185 | 30337 ft | 465 kts | 178° |
| 2026-04-22 14:50 | 50.87196 | 10.21069 | 30338 ft | 467 kts | 179° |
| 2026-04-22 14:51 | 50.83957 | 10.20470 | 30337 ft | 471 kts | 191° |
| 2026-04-22 14:51 | 50.80853 | 10.18815 | 30336 ft | 473 kts | 204° |
| 2026-04-22 14:51 | 50.78017 | 10.16165 | 30337 ft | 474 kts | 217° |
| 2026-04-22 14:51 | 50.75590 | 10.12660 | 30246 ft | 471 kts | 229° |
| 2026-04-22 14:52 | 50.73676 | 10.08499 | 29770 ft | 467 kts | 242° |
| 2026-04-22 14:52 | 50.72374 | 10.03854 | 29170 ft | 460 kts | 255° |
| 2026-04-22 14:52 | 50.71533 | 9.99024 | 28517 ft | 455 kts | 257° |
| 2026-04-22 14:52 | 50.70643 | 9.94307 | 27903 ft | 452 kts | 253° |
| 2026-04-22 14:53 | 50.69535 | 9.89684 | 27285 ft | 449 kts | 249° |
| 2026-04-22 14:53 | 50.68269 | 9.85205 | 26685 ft | 446 kts | 246° |
| 2026-04-22 14:53 | 50.66916 | 9.80827 | 26088 ft | 442 kts | 245° |
| 2026-04-22 14:53 | 50.65534 | 9.76519 | 25500 ft | 439 kts | 244° |
| 2026-04-22 14:54 | 50.64127 | 9.72267 | 24927 ft | 436 kts | 240° |
| 2026-04-22 14:54 | 50.62289 | 9.68505 | 24378 ft | 433 kts | 224° |
| 2026-04-22 14:54 | 50.59930 | 9.65628 | 23797 ft | 428 kts | 208° |
| 2026-04-22 14:54 | 50.57242 | 9.63699 | 23135 ft | 423 kts | 199° |
| 2026-04-22 14:55 | 50.54490 | 9.62125 | 22528 ft | 419 kts | 198° |
| 2026-04-22 14:55 | 50.51754 | 9.60602 | 21926 ft | 416 kts | 199° |
| 2026-04-22 14:55 | 50.49202 | 9.58508 | 21312 ft | 415 kts | 215° |
| 2026-04-22 14:55 | 50.47130 | 9.55395 | 20743 ft | 412 kts | 233° |
| 2026-04-22 14:56 | 50.45714 | 9.51531 | 20166 ft | 407 kts | 250° |
| 2026-04-22 14:56 | 50.44916 | 9.47315 | 19615 ft | 402 kts | 259° |
| 2026-04-22 14:56 | 50.44311 | 9.43051 | 19072 ft | 399 kts | 259° |
| 2026-04-22 14:56 | 50.43686 | 9.38826 | 18504 ft | 397 kts | 258° |
| 2026-04-22 14:57 | 50.42997 | 9.34654 | 17935 ft | 393 kts | 256° |
| 2026-04-22 14:57 | 50.42264 | 9.30554 | 17382 ft | 390 kts | 255° |
| 2026-04-22 14:57 | 50.41230 | 9.26640 | 16805 ft | 388 kts | 239° |
| 2026-04-22 14:57 | 50.39500 | 9.23427 | 16202 ft | 386 kts | 219° |
| 2026-04-22 14:58 | 50.37299 | 9.21098 | 15697 ft | 381 kts | 210° |
| 2026-04-22 14:58 | 50.35056 | 9.18936 | 15206 ft | 377 kts | 210° |
| 2026-04-22 14:58 | 50.32832 | 9.16796 | 14718 ft | 373 kts | 210° |
| 2026-04-22 14:58 | 50.30628 | 9.14674 | 14224 ft | 370 kts | 210° |
| 2026-04-22 14:59 | 50.28509 | 9.12416 | 13708 ft | 368 kts | 220° |
| 2026-04-22 14:59 | 50.26855 | 9.09399 | 13173 ft | 365 kts | 238° |
| 2026-04-22 14:59 | 50.24938 | 9.01991 | 12090 ft | 360 kts | 251° |
| 2026-04-22 15:00 | 50.24094 | 8.98338 | 11603 ft | 356 kts | 250° |
| 2026-04-22 15:00 | 50.23250 | 8.94704 | 11093 ft | 354 kts | 250° |
| 2026-04-22 15:00 | 50.22422 | 8.91164 | 10719 ft | 348 kts | 250° |
| 2026-04-22 15:00 | 50.21604 | 8.87677 | 10576 ft | 335 kts | 250° |
| 2026-04-22 15:01 | 50.20808 | 8.84289 | 10447 ft | 322 kts | 250° |
| 2026-04-22 15:01 | 50.20059 | 8.81115 | 10347 ft | 309 kts | 250° |
| 2026-04-22 15:01 | 50.19325 | 8.78007 | 10306 ft | 293 kts | 250° |
| 2026-04-22 15:01 | 50.18645 | 8.75135 | 10295 ft | 278 kts | 250° |
| 2026-04-22 15:02 | 50.17990 | 8.72377 | 10296 ft | 270 kts | 250° |
| 2026-04-22 15:02 | 50.17343 | 8.69617 | 10294 ft | 272 kts | 253° |
| 2026-04-22 15:02 | 50.17180 | 8.66715 | 10306 ft | 270 kts | 280° |
| 2026-04-22 15:02 | 50.17264 | 8.63806 | 10297 ft | 270 kts | 260° |
| 2026-04-22 15:03 | 50.16657 | 8.61026 | 10301 ft | 273 kts | 246° |
| 2026-04-22 15:03 | 50.15834 | 8.58364 | 10294 ft | 271 kts | 242° |
| 2026-04-22 15:03 | 50.14970 | 8.55758 | 10296 ft | 271 kts | 242° |
| 2026-04-22 15:03 | 50.14109 | 8.53150 | 10300 ft | 270 kts | 243° |
| 2026-04-22 15:04 | 50.13261 | 8.50523 | 10293 ft | 271 kts | 243° |
| 2026-04-22 15:04 | 50.12427 | 8.47894 | 10295 ft | 271 kts | 243° |
| 2026-04-22 15:04 | 50.11597 | 8.45256 | 10290 ft | 271 kts | 244° |
| 2026-04-22 15:04 | 50.10861 | 8.42559 | 10318 ft | 270 kts | 250° |
| 2026-04-22 15:05 | 50.10206 | 8.39810 | 10279 ft | 270 kts | 249° |
| 2026-04-22 15:05 | 50.09553 | 8.37088 | 10046 ft | 268 kts | 249° |
| 2026-04-22 15:05 | 50.08898 | 8.34370 | 9649 ft | 267 kts | 249° |
| 2026-04-22 15:05 | 50.08245 | 8.31671 | 9250 ft | 266 kts | 249° |
| 2026-04-22 15:06 | 50.07803 | 8.29852 | 8970 ft | 265 kts | 249° |
| 2026-04-22 15:06 | 50.06945 | 8.26309 | 8467 ft | 263 kts | 248° |
| 2026-04-22 15:06 | 50.06300 | 8.23659 | 8083 ft | 261 kts | 248° |
| 2026-04-22 15:06 | 50.05656 | 8.21011 | 7692 ft | 260 kts | 247° |
| 2026-04-22 15:07 | 50.05017 | 8.18388 | 7346 ft | 258 kts | 247° |
| 2026-04-22 15:07 | 50.04382 | 8.15783 | 6980 ft | 257 kts | 247° |
| 2026-04-22 15:07 | 50.03749 | 8.13191 | 6615 ft | 256 kts | 247° |
| 2026-04-22 15:07 | 50.03119 | 8.10613 | 6260 ft | 255 kts | 247° |
| 2026-04-22 15:08 | 50.02491 | 8.08053 | 5962 ft | 252 kts | 248° |
| 2026-04-22 15:08 | 50.01868 | 8.05506 | 5607 ft | 253 kts | 248° |
| 2026-04-22 15:08 | 50.01250 | 8.02979 | 5360 ft | 248 kts | 249° |
| 2026-04-22 15:08 | 50.00641 | 8.00501 | 5165 ft | 244 kts | 249° |
| 2026-04-22 15:09 | 50.00027 | 7.98002 | 5072 ft | 247 kts | 249° |
| 2026-04-22 15:09 | 49.99433 | 7.95566 | 5011 ft | 234 kts | 249° |
| 2026-04-22 15:09 | 49.98861 | 7.93228 | 5036 ft | 241 kts | 249° |
| 2026-04-22 15:09 | 49.98239 | 7.90731 | 5016 ft | 251 kts | 245° |
| 2026-04-22 15:10 | 49.97185 | 7.88605 | 5018 ft | 247 kts | 214° |
| 2026-04-22 15:10 | 49.95639 | 7.87621 | 5017 ft | 242 kts | 182° |
| 2026-04-22 15:10 | 49.93998 | 7.87884 | 5014 ft | 235 kts | 163° |
| 2026-04-22 15:10 | 49.92398 | 7.88465 | 5023 ft | 236 kts | 161° |
| 2026-04-22 15:11 | 49.91002 | 7.89603 | 5016 ft | 218 kts | 130° |
| 2026-04-22 15:11 | 49.90296 | 7.91514 | 5016 ft | 196 kts | 104° |
| 2026-04-22 15:11 | 49.89892 | 7.93572 | 5021 ft | 201 kts | 103° |
| 2026-04-22 15:11 | 49.89503 | 7.95616 | 5016 ft | 197 kts | 103° |
| 2026-04-22 15:12 | 49.89339 | 7.97714 | 5017 ft | 197 kts | 78° |
| 2026-04-22 15:12 | 49.89945 | 7.99616 | 5027 ft | 199 kts | 56° |
| 2026-04-22 15:12 | 49.90758 | 8.01323 | 5017 ft | 193 kts | 53° |
| 2026-04-22 15:12 | 49.91297 | 8.02417 | 5015 ft | 194 kts | 53° |
| 2026-04-22 15:13 | 49.92116 | 8.04113 | 5011 ft | 196 kts | 54° |
| 2026-04-22 15:13 | 49.92883 | 8.05752 | 4998 ft | 179 kts | 56° |
| 2026-04-22 15:13 | 49.93497 | 8.07393 | 5010 ft | 176 kts | 67° |
| 2026-04-22 15:13 | 49.93920 | 8.09171 | 5009 ft | 177 kts | 70° |
| 2026-04-22 15:14 | 49.94351 | 8.10984 | 5005 ft | 179 kts | 69° |
| 2026-04-22 15:14 | 49.94931 | 8.13374 | 5008 ft | 177 kts | 69° |
| 2026-04-22 15:14 | 49.95225 | 8.14576 | 4919 ft | 175 kts | 69° |
| 2026-04-22 15:14 | 49.95648 | 8.16319 | 4627 ft | 171 kts | 69° |
| 2026-04-22 15:15 | 49.96075 | 8.18070 | 4129 ft | 174 kts | 69° |
| 2026-04-22 15:15 | 49.96506 | 8.19842 | 3652 ft | 175 kts | 69° |
| 2026-04-22 15:15 | 49.96926 | 8.21581 | 3275 ft | 173 kts | 69° |
| 2026-04-22 15:15 | 49.97348 | 8.23307 | 2936 ft | 172 kts | 69° |
| 2026-04-22 15:16 | 49.97767 | 8.25047 | 2445 ft | 174 kts | 68° |
| 2026-04-22 15:16 | 49.98196 | 8.26829 | 2037 ft | 174 kts | 69° |
| 2026-04-22 15:16 | 49.98609 | 8.28551 | 1792 ft | 162 kts | 68° |
| 2026-04-22 15:16 | 49.99010 | 8.30218 | 1706 ft | 169 kts | 68° |
| 2026-04-22 15:17 | 49.99429 | 8.31951 | 1704 ft | 176 kts | 69° |
| 2026-04-22 15:17 | 49.99855 | 8.33718 | 1704 ft | 173 kts | 68° |
| 2026-04-22 15:17 | 50.00286 | 8.35495 | 1895 ft | 179 kts | 69° |
| 2026-04-22 15:17 | 50.00721 | 8.37298 | 2038 ft | 175 kts | 68° |
| 2026-04-22 15:18 | 50.01143 | 8.39051 | 1873 ft | 168 kts | 68° |
| 2026-04-22 15:18 | 50.01519 | 8.40626 | 1814 ft | 144 kts | 69° |
| 2026-04-22 15:18 | 50.01874 | 8.42098 | 1618 ft | 140 kts | 68° |
| 2026-04-22 15:18 | 50.02197 | 8.43452 | 1461 ft | 127 kts | 68° |
| 2026-04-22 15:19 | 50.02497 | 8.44704 | 1198 ft | 121 kts | 68° |
| 2026-04-22 15:19 | 50.02796 | 8.45968 | 962 ft | 135 kts | 66° |
| 2026-04-22 15:19 | 50.03135 | 8.47330 | 739 ft | 134 kts | 66° |
| 2026-04-22 15:19 | 50.03443 | 8.48649 | 549 ft | 131 kts | 68° |
| 2026-04-22 15:20 | 50.03754 | 8.49955 | 364 ft | 126 kts | 65° |
| 2026-04-22 15:20 | 50.04046 | 8.51106 | 351 ft | 100 kts | 69° |
| 2026-04-22 15:20 | 50.04245 | 8.51942 | 352 ft | 63 kts | 69° |